createdAt,value
2018-03-21T00:00:39.308Z,98930.98
2018-03-21T00:01:42.666Z,98924.64
2018-03-21T00:02:45.994Z,98929.47
2018-03-21T00:03:49.775Z,98929.80
2018-03-21T00:04:53.026Z,98937.06
2018-03-21T00:05:56.357Z,98930.27
2018-03-21T00:06:59.831Z,98935.27
2018-03-21T00:08:03.150Z,98931.23
2018-03-21T00:09:06.362Z,98934.58
2018-03-21T00:10:10.223Z,98936.27
2018-03-21T00:11:13.546Z,98928.69
2018-03-21T00:12:16.763Z,98931.72
2018-03-21T00:13:20.795Z,98932.63
2018-03-21T00:14:24.053Z,98932.68
2018-03-21T00:15:27.412Z,98934.91
2018-03-21T00:16:31.062Z,98933.78
2018-03-21T00:17:34.640Z,98938.00
2018-03-21T00:18:37.868Z,98930.59
2018-03-21T00:19:40.986Z,98935.52
2018-03-21T00:20:44.226Z,98935.98
2018-03-21T00:21:47.426Z,98930.87
2018-03-21T00:22:51.005Z,98935.40
2018-03-21T00:23:54.292Z,98933.66
2018-03-21T00:24:57.549Z,98934.28
2018-03-21T00:26:00.735Z,98933.29
2018-03-21T00:27:03.891Z,98931.02
2018-03-21T00:28:07.234Z,98933.22
2018-03-21T00:29:10.954Z,98931.38
2018-03-21T00:30:14.328Z,98926.29
2018-03-21T00:31:17.730Z,98936.77
2018-03-21T00:32:21.126Z,98937.09
2018-03-21T00:33:24.460Z,98934.25
2018-03-21T00:34:27.844Z,98937.64
2018-03-21T00:35:31.689Z,98945.03
2018-03-21T00:36:35.063Z,98946.12
2018-03-21T00:37:38.459Z,98945.86
2018-03-21T00:38:42.167Z,98941.55
2018-03-21T00:39:45.504Z,98946.39
2018-03-21T00:40:48.914Z,98948.53
2018-03-21T00:41:52.786Z,98949.78
2018-03-21T00:42:56.470Z,98950.99
2018-03-21T00:44:00.058Z,98952.66
2018-03-21T00:45:03.552Z,98951.67
2018-03-21T00:46:06.991Z,98953.87
2018-03-21T00:47:10.401Z,98951.51
2018-03-21T00:48:14.346Z,98949.77
2018-03-21T00:49:17.840Z,98947.09
2018-03-21T00:50:21.418Z,98947.09
2018-03-21T00:51:25.532Z,98955.61
2018-03-21T00:52:29.352Z,98949.78
2018-03-21T00:53:32.926Z,98953.54
2018-03-21T00:54:36.843Z,98959.17
2018-03-21T00:55:40.206Z,98953.97
2018-03-21T00:56:43.573Z,98954.29
2018-03-21T00:57:46.968Z,98966.02
2018-03-21T00:58:50.696Z,98954.94
2018-03-21T00:59:54.380Z,98961.55
2018-03-21T01:00:58.435Z,98962.50
2018-03-21T01:02:02.041Z,98968.45
2018-03-21T01:03:05.623Z,98974.86
2018-03-21T01:04:09.286Z,98971.75
2018-03-21T01:05:12.880Z,98970.89
2018-03-21T01:06:16.281Z,98974.43
2018-03-21T01:07:20.130Z,98976.16
2018-03-21T01:08:23.898Z,98977.74
2018-03-21T01:09:27.373Z,98971.91
2018-03-21T01:10:30.949Z,98973.25
2018-03-21T01:11:34.532Z,98973.41
2018-03-21T01:12:37.971Z,98972.30
2018-03-21T01:13:41.964Z,98970.08
2018-03-21T01:14:45.493Z,98975.61
2018-03-21T01:15:49.028Z,98973.83
2018-03-21T01:16:52.564Z,98972.23
2018-03-21T01:17:56.262Z,98971.16
2018-03-21T01:18:59.776Z,98975.55
2018-03-21T01:20:03.643Z,98981.80
2018-03-21T01:21:07.126Z,98979.37
2018-03-21T01:22:10.666Z,98982.06
2018-03-21T01:23:14.259Z,98981.67
2018-03-21T01:24:17.783Z,98978.09
2018-03-21T01:25:21.450Z,98981.57
2018-03-21T01:26:25.229Z,98985.05
2018-03-21T01:27:28.754Z,98974.41
2018-03-21T01:28:32.408Z,98973.55
2018-03-21T01:29:35.761Z,98971.94
2018-03-21T01:30:39.438Z,98974.77
2018-03-21T01:31:42.871Z,98972.25
2018-03-21T01:32:46.738Z,98975.09
2018-03-21T01:33:50.345Z,98977.39
2018-03-21T01:34:53.929Z,98978.50
2018-03-21T01:35:57.715Z,98982.13
2018-03-21T01:37:01.575Z,98982.06
2018-03-21T01:38:05.511Z,98979.33
2018-03-21T01:39:09.637Z,98978.23
2018-03-21T01:40:13.051Z,98976.97
2018-03-21T01:41:16.593Z,98980.23
2018-03-21T01:42:19.926Z,98980.53
2018-03-21T01:43:23.494Z,98983.25
2018-03-21T01:44:27.524Z,98988.91
2018-03-21T01:45:31.107Z,98985.14
2018-03-21T01:46:34.572Z,98983.86
2018-03-21T01:47:37.842Z,98978.52
2018-03-21T01:48:41.247Z,98982.59
2018-03-21T01:49:44.732Z,98982.04
2018-03-21T01:50:48.410Z,98972.19
2018-03-21T01:51:52.068Z,98980.64
2018-03-21T01:52:55.613Z,98979.35
2018-03-21T01:53:59.204Z,98985.77
2018-03-21T01:55:02.725Z,98984.97
2018-03-21T01:56:06.229Z,98986.30
2018-03-21T01:57:10.163Z,98989.23
2018-03-21T01:58:13.644Z,98987.46
2018-03-21T01:59:17.231Z,98981.23
2018-03-21T02:00:20.780Z,98989.92
2018-03-21T02:01:24.476Z,98983.89
2018-03-21T02:02:28.155Z,98984.26
2018-03-21T02:03:32.027Z,98983.31
2018-03-21T02:04:35.832Z,98977.52
2018-03-21T02:05:39.375Z,98985.33
2018-03-21T02:06:42.528Z,98988.71
2018-03-21T02:07:46.142Z,98981.34
2018-03-21T02:08:49.430Z,98980.32
2018-03-21T02:09:53.228Z,98981.10
2018-03-21T02:10:56.869Z,98985.16
2018-03-21T02:12:00.272Z,98987.92
2018-03-21T02:13:03.630Z,98988.14
2018-03-21T02:14:07.046Z,98981.44
2018-03-21T02:15:10.556Z,98981.13
2018-03-21T02:16:14.451Z,98981.77
2018-03-21T02:17:18.213Z,98980.15
2018-03-21T02:18:21.527Z,98978.02
2018-03-21T02:19:24.768Z,98985.26
2018-03-21T02:20:28.058Z,98983.30
2018-03-21T02:21:31.491Z,98978.20
2018-03-21T02:22:35.020Z,98979.94
2018-03-21T02:23:38.503Z,98972.34
2018-03-21T02:24:42.431Z,98975.80
2018-03-21T02:25:45.943Z,98974.75
2018-03-21T02:26:49.385Z,98971.14
2018-03-21T02:27:52.575Z,98971.31
2018-03-21T02:28:56.202Z,98971.31
2018-03-21T02:30:00.500Z,98972.63
2018-03-21T02:31:03.908Z,98973.61
2018-03-21T02:32:07.589Z,98976.69
2018-03-21T02:33:10.944Z,98973.30
2018-03-21T02:34:15.129Z,98972.80
2018-03-21T02:35:19.021Z,98974.77
2018-03-21T02:36:22.361Z,98969.95
2018-03-21T02:37:25.521Z,98975.95
2018-03-21T02:38:28.746Z,98976.92
2018-03-21T02:39:32.224Z,98974.56
2018-03-21T02:40:35.357Z,98971.44
2018-03-21T02:41:39.053Z,98978.16
2018-03-21T02:42:42.458Z,98979.66
2018-03-21T02:43:46.364Z,98977.61
2018-03-21T02:44:49.714Z,98986.33
2018-03-21T02:45:53.147Z,98979.79
2018-03-21T02:46:56.570Z,98987.04
2018-03-21T02:48:00.761Z,98986.30
2018-03-21T02:49:04.268Z,98983.23
2018-03-21T02:50:07.482Z,98984.38
2018-03-21T02:51:10.900Z,98989.58
2018-03-21T02:52:14.217Z,98984.61
2018-03-21T02:53:17.522Z,98986.42
2018-03-21T02:54:21.813Z,98987.13
2018-03-21T02:55:25.241Z,98977.05
2018-03-21T02:56:29.762Z,98982.41
2018-03-21T02:57:33.266Z,98979.41
2018-03-21T02:58:36.522Z,98975.59
2018-03-21T02:59:39.888Z,98973.94
2018-03-21T03:00:43.479Z,98979.53
2018-03-21T03:01:46.774Z,98977.80
2018-03-21T03:02:49.989Z,98984.19
2018-03-21T03:03:53.575Z,98977.48
2018-03-21T03:04:57.014Z,98972.13
2018-03-21T03:06:00.373Z,98976.49
2018-03-21T03:07:04.063Z,98978.63
2018-03-21T03:08:07.691Z,98984.02
2018-03-21T03:09:10.976Z,98984.91
2018-03-21T03:10:14.566Z,98988.06
2018-03-21T03:11:17.936Z,98986.50
2018-03-21T03:12:21.125Z,98991.47
2018-03-21T03:13:24.719Z,98994.92
2018-03-21T03:14:28.049Z,98989.52
2018-03-21T03:15:31.286Z,98993.60
2018-03-21T03:16:34.671Z,98991.56
2018-03-21T03:17:38.030Z,98993.98
2018-03-21T03:18:41.258Z,98991.72
2018-03-21T03:19:44.936Z,98995.59
2018-03-21T03:20:48.260Z,98994.14
2018-03-21T03:21:51.362Z,98994.93
2018-03-21T03:22:54.411Z,98994.30
2018-03-21T03:23:57.613Z,98995.40
2018-03-21T03:25:00.858Z,98996.44
2018-03-21T03:26:04.390Z,98993.84
2018-03-21T03:27:07.368Z,98996.99
2018-03-21T03:28:10.730Z,99003.75
2018-03-21T03:29:14.009Z,98997.77
2018-03-21T03:30:17.257Z,98999.66
2018-03-21T03:31:20.750Z,98992.90
2018-03-21T03:32:24.524Z,99000.05
2018-03-21T03:33:27.602Z,99002.90
2018-03-21T03:34:30.862Z,99003.98
2018-03-21T03:35:34.036Z,99002.97
2018-03-21T03:36:37.112Z,99002.71
2018-03-21T03:37:40.284Z,99002.56
2018-03-21T03:38:43.962Z,99001.66
2018-03-21T03:39:47.281Z,99002.92
2018-03-21T03:40:50.510Z,99002.14
2018-03-21T03:41:53.730Z,99002.37
2018-03-21T03:42:56.842Z,99003.41
2018-03-21T03:44:00.147Z,99000.02
2018-03-21T03:45:03.774Z,99004.66
2018-03-21T03:46:07.217Z,99000.98
2018-03-21T03:47:10.625Z,99009.50
2018-03-21T03:48:13.974Z,99011.39
2018-03-21T03:49:17.225Z,99013.22
2018-03-21T03:50:20.637Z,99011.80
2018-03-21T03:51:24.390Z,99016.13
2018-03-21T03:52:27.435Z,99007.39
2018-03-21T03:53:30.691Z,99011.06
2018-03-21T03:54:33.937Z,99008.00
2018-03-21T03:55:37.184Z,99008.84
2018-03-21T03:56:40.422Z,98995.37
2018-03-21T03:57:44.151Z,99004.99
2018-03-21T03:58:47.250Z,99005.92
2018-03-21T03:59:50.341Z,99003.86
2018-03-21T04:00:53.439Z,99000.55
2018-03-21T04:01:56.567Z,99003.72
2018-03-21T04:02:59.857Z,99000.50
2018-03-21T04:04:03.535Z,98999.64
2018-03-21T04:05:06.915Z,99003.29
2018-03-21T04:06:10.008Z,98997.93
2018-03-21T04:07:13.236Z,99000.83
2018-03-21T04:08:16.711Z,99001.38
2018-03-21T04:09:20.060Z,99001.67
2018-03-21T04:10:23.618Z,99001.34
2018-03-21T04:11:26.634Z,99001.27
2018-03-21T04:12:29.598Z,99004.78
2018-03-21T04:13:32.722Z,99003.59
2018-03-21T04:14:35.699Z,99002.03
2018-03-21T04:15:38.702Z,99004.48
2018-03-21T04:16:42.450Z,99002.30
2018-03-21T04:17:45.686Z,99000.80
2018-03-21T04:18:48.973Z,99000.50
2018-03-21T04:19:52.132Z,99001.92
2018-03-21T04:20:55.328Z,99003.11
2018-03-21T04:21:58.339Z,99009.06
2018-03-21T04:23:01.932Z,99009.59
2018-03-21T04:24:05.017Z,99010.67
2018-03-21T04:25:08.204Z,99003.20
2018-03-21T04:26:11.554Z,99009.99
2018-03-21T04:27:14.602Z,99020.92
2018-03-21T04:28:17.836Z,99020.32
2018-03-21T04:29:21.163Z,99025.98
2018-03-21T04:30:24.280Z,99023.81
2018-03-21T04:31:27.361Z,99028.45
2018-03-21T04:32:30.528Z,99030.73
2018-03-21T04:33:33.713Z,99026.66
2018-03-21T04:34:36.710Z,99029.19
2018-03-21T04:35:40.181Z,99036.27
2018-03-21T04:36:43.292Z,99030.59
2018-03-21T04:37:46.770Z,99023.20
2018-03-21T04:38:50.068Z,99021.39
2018-03-21T04:39:53.066Z,99023.83
2018-03-21T04:40:56.280Z,99024.03
2018-03-21T04:41:59.830Z,99017.67
2018-03-21T04:43:03.359Z,99018.66
2018-03-21T04:44:06.579Z,99015.06
2018-03-21T04:45:09.689Z,99013.09
2018-03-21T04:46:13.292Z,99016.63
2018-03-21T04:47:16.731Z,99017.65
2018-03-21T04:48:20.304Z,99016.40
2018-03-21T04:49:24.362Z,99010.79
2018-03-21T04:50:27.920Z,99016.38
2018-03-21T04:51:31.454Z,99010.77
2018-03-21T04:52:34.939Z,99007.98
2018-03-21T04:53:38.130Z,99012.39
2018-03-21T04:54:41.506Z,99021.09
2018-03-21T04:55:44.745Z,99018.18
2018-03-21T04:56:48.085Z,99020.13
2018-03-21T04:57:51.754Z,99020.50
2018-03-21T04:58:55.653Z,99022.84
2018-03-21T04:59:59.067Z,99018.20
2018-03-21T05:01:02.465Z,99018.69
2018-03-21T05:02:05.894Z,99014.84
2018-03-21T05:03:09.256Z,99024.55
2018-03-21T05:04:12.719Z,99014.62
2018-03-21T05:05:16.747Z,99015.56
2018-03-21T05:06:20.287Z,99023.27
2018-03-21T05:07:23.622Z,99019.66
2018-03-21T05:08:27.097Z,99027.77
2018-03-21T05:09:30.386Z,99020.61
2018-03-21T05:10:33.900Z,99022.03
2018-03-21T05:11:38.238Z,99028.95
2018-03-21T05:12:41.593Z,99027.77
2018-03-21T05:13:45.109Z,99032.08
2018-03-21T05:14:48.386Z,99023.97
2018-03-21T05:15:51.763Z,99027.34
2018-03-21T05:16:55.133Z,99031.98
2018-03-21T05:17:58.855Z,99022.64
2018-03-21T05:19:02.454Z,99030.47
2018-03-21T05:20:05.802Z,99025.95
2018-03-21T05:21:09.140Z,99029.19
2018-03-21T05:22:12.426Z,99027.97
2018-03-21T05:23:15.965Z,99028.70
2018-03-21T05:24:19.747Z,99027.54
2018-03-21T05:25:23.161Z,99028.30
2018-03-21T05:26:26.701Z,99025.14
2018-03-21T05:27:30.157Z,99032.22
2018-03-21T05:28:33.814Z,99031.44
2018-03-21T05:29:37.321Z,99035.17
2018-03-21T05:30:41.085Z,99040.83
2018-03-21T05:31:44.677Z,99043.80
2018-03-21T05:32:48.023Z,99039.70
2018-03-21T05:33:51.429Z,99039.43
2018-03-21T05:34:54.917Z,99037.94
2018-03-21T05:35:58.740Z,99033.59
2018-03-21T05:37:02.802Z,99038.88
2018-03-21T05:38:06.610Z,99035.27
2018-03-21T05:39:10.325Z,99036.42
2018-03-21T05:40:14.092Z,99039.77
2018-03-21T05:41:17.623Z,99046.69
2018-03-21T05:42:21.709Z,99040.13
2018-03-21T05:43:25.511Z,99043.38
2018-03-21T05:44:29.147Z,99047.91
2018-03-21T05:45:32.543Z,99047.45
2018-03-21T05:46:36.312Z,99048.53
2018-03-21T05:47:39.615Z,99047.28
2018-03-21T05:48:43.745Z,99049.89
2018-03-21T05:49:47.248Z,99050.20
2018-03-21T05:50:50.843Z,99047.59
2018-03-21T05:51:54.380Z,99048.05
2018-03-21T05:52:58.114Z,99048.27
2018-03-21T05:54:01.626Z,99044.34
2018-03-21T05:55:05.566Z,99053.09
2018-03-21T05:56:09.128Z,99053.81
2018-03-21T05:57:12.778Z,99057.27
2018-03-21T05:58:16.342Z,99057.48
2018-03-21T05:59:19.753Z,99059.07
2018-03-21T06:00:23.290Z,99057.19
2018-03-21T06:01:27.119Z,99061.59
2018-03-21T06:02:30.666Z,99059.28
2018-03-21T06:03:34.940Z,99065.13
2018-03-21T06:04:38.442Z,99063.14
2018-03-21T06:05:42.024Z,99066.77
2018-03-21T06:06:45.510Z,99071.09
2018-03-21T06:07:48.992Z,99071.37
2018-03-21T06:08:52.681Z,99066.05
2018-03-21T06:09:55.902Z,99068.63
2018-03-21T06:11:00.077Z,99070.66
2018-03-21T06:12:03.529Z,99074.64
2018-03-21T06:13:07.524Z,99071.42
2018-03-21T06:14:11.185Z,99072.20
2018-03-21T06:15:14.586Z,99062.74
2018-03-21T06:16:18.249Z,99060.41
2018-03-21T06:17:22.851Z,99059.67
2018-03-21T06:18:26.354Z,99058.84
2018-03-21T06:19:30.697Z,99058.38
2018-03-21T06:20:34.382Z,99057.80
2018-03-21T06:21:38.072Z,99060.64
2018-03-21T06:22:41.780Z,99060.51
2018-03-21T06:23:45.166Z,99061.79
2018-03-21T06:24:48.622Z,99063.51
2018-03-21T06:25:52.590Z,99070.20
2018-03-21T06:26:56.298Z,99067.44
2018-03-21T06:27:59.991Z,99061.09
2018-03-21T06:29:03.224Z,99069.33
2018-03-21T06:30:06.718Z,99061.43
2018-03-21T06:31:10.230Z,99058.84
2018-03-21T06:32:14.189Z,99060.33
2018-03-21T06:33:17.853Z,99061.00
2018-03-21T06:34:21.475Z,99065.06
2018-03-21T06:35:25.042Z,99066.09
2018-03-21T06:36:28.482Z,99061.65
2018-03-21T06:37:32.191Z,99069.80
2018-03-21T06:38:35.932Z,99069.38
2018-03-21T06:39:39.416Z,99069.06
2018-03-21T06:40:42.909Z,99070.13
2018-03-21T06:41:46.613Z,99070.55
2018-03-21T06:42:50.136Z,99071.37
2018-03-21T06:43:53.449Z,99065.59
2018-03-21T06:44:57.526Z,99072.81
2018-03-21T06:46:01.040Z,99072.44
2018-03-21T06:47:04.425Z,99073.96
2018-03-21T06:48:08.301Z,99068.67
2018-03-21T06:49:11.957Z,99073.75
2018-03-21T06:50:15.429Z,99063.97
2018-03-21T06:51:19.244Z,99075.86
2018-03-21T06:52:22.765Z,99071.80
2018-03-21T06:53:26.178Z,99077.66
2018-03-21T06:54:29.879Z,99075.11
2018-03-21T06:55:33.484Z,99077.91
2018-03-21T06:56:37.080Z,99080.77
2018-03-21T06:57:40.774Z,99078.03
2018-03-21T06:58:45.308Z,99079.42
2018-03-21T06:59:48.849Z,99075.41
2018-03-21T07:00:52.539Z,99074.77
2018-03-21T07:01:56.196Z,99076.88
2018-03-21T07:03:00.200Z,99077.23
2018-03-21T07:04:04.249Z,99081.19
2018-03-21T07:05:07.734Z,99083.68
2018-03-21T07:06:11.295Z,99080.16
2018-03-21T07:07:14.947Z,99077.35
2018-03-21T07:08:18.410Z,99082.43
2018-03-21T07:09:21.971Z,99082.59
2018-03-21T07:10:25.728Z,99090.73
2018-03-21T07:11:29.308Z,99079.81
2018-03-21T07:12:32.944Z,99081.88
2018-03-21T07:13:36.478Z,99083.75
2018-03-21T07:14:40.609Z,99086.16
2018-03-21T07:15:44.014Z,99087.23
2018-03-21T07:16:47.762Z,99096.20
2018-03-21T07:17:51.318Z,99098.73
2018-03-21T07:18:54.891Z,99102.48
2018-03-21T07:19:58.311Z,99097.55
2018-03-21T07:21:01.857Z,99106.83
2018-03-21T07:22:05.450Z,99102.92
2018-03-21T07:23:09.291Z,99101.63
2018-03-21T07:24:12.807Z,99104.16
2018-03-21T07:25:16.242Z,99107.38
2018-03-21T07:26:19.808Z,99105.25
2018-03-21T07:27:23.414Z,99106.98
2018-03-21T07:28:26.995Z,99109.87
2018-03-21T07:29:30.744Z,99105.86
2018-03-21T07:30:34.050Z,99107.88
2018-03-21T07:31:37.616Z,99112.56
2018-03-21T07:32:41.232Z,99116.92
2018-03-21T07:33:44.745Z,99113.23
2018-03-21T07:34:48.243Z,99115.02
2018-03-21T07:35:52.136Z,99113.76
2018-03-21T07:36:55.887Z,99111.95
2018-03-21T07:37:59.338Z,99118.03
2018-03-21T07:39:03.086Z,99120.16
2018-03-21T07:40:06.567Z,99119.47
2018-03-21T07:41:10.051Z,99124.19
2018-03-21T07:42:13.802Z,99124.87
2018-03-21T07:43:17.194Z,99127.69
2018-03-21T07:44:20.614Z,99120.08
2018-03-21T07:45:25.518Z,99121.20
2018-03-21T07:46:28.907Z,99121.79
2018-03-21T07:47:33.046Z,99119.64
2018-03-21T07:48:36.786Z,99117.73
2018-03-21T07:49:39.985Z,99116.79
2018-03-21T07:50:43.345Z,99120.89
2018-03-21T07:51:46.731Z,99116.65
2018-03-21T07:52:50.029Z,99126.14
2018-03-21T07:53:53.724Z,99122.41
2018-03-21T07:54:57.683Z,99119.64
2018-03-21T07:56:01.271Z,99131.78
2018-03-21T07:57:04.801Z,99122.09
2018-03-21T07:58:08.919Z,99120.37
2018-03-21T07:59:12.187Z,99123.59
2018-03-21T08:00:15.632Z,99120.83
2018-03-21T08:01:19.888Z,99122.47
2018-03-21T08:02:23.326Z,99124.76
2018-03-21T08:03:26.816Z,99123.19
2018-03-21T08:04:30.130Z,99125.54
2018-03-21T08:05:33.541Z,99128.95
2018-03-21T08:06:36.998Z,99128.72
2018-03-21T08:07:41.012Z,99133.13
2018-03-21T08:08:44.448Z,99135.61
2018-03-21T08:09:47.810Z,99135.11
2018-03-21T08:10:51.213Z,99136.20
2018-03-21T08:11:54.636Z,99133.31
2018-03-21T08:12:58.674Z,99129.83
2018-03-21T08:14:02.453Z,99137.25
2018-03-21T08:15:05.783Z,99140.63
2018-03-21T08:16:10.123Z,99139.52
2018-03-21T08:17:13.682Z,99150.59
2018-03-21T08:18:16.994Z,99147.02
2018-03-21T08:19:20.685Z,99146.30
2018-03-21T08:20:24.490Z,99141.44
2018-03-21T08:21:27.873Z,99152.34
2018-03-21T08:22:31.139Z,99144.16
2018-03-21T08:23:35.139Z,99143.50
2018-03-21T08:24:38.462Z,99144.87
2018-03-21T08:25:41.803Z,99149.70
2018-03-21T08:26:45.381Z,99148.02
2018-03-21T08:27:48.807Z,99142.05
2018-03-21T08:28:52.381Z,99148.14
2018-03-21T08:29:55.852Z,99143.50
2018-03-21T08:30:59.525Z,99139.76
2018-03-21T08:32:03.078Z,99141.06
2018-03-21T08:33:07.006Z,99141.24
2018-03-21T08:34:10.340Z,99136.91
2018-03-21T08:35:13.654Z,99134.70
2018-03-21T08:36:17.972Z,99146.31
2018-03-21T08:37:21.372Z,99138.60
2018-03-21T08:38:24.569Z,99136.96
2018-03-21T08:39:28.324Z,99139.31
2018-03-21T08:40:31.568Z,99135.67
2018-03-21T08:41:35.731Z,99140.63
2018-03-21T08:42:39.021Z,99135.69
2018-03-21T08:43:42.346Z,99136.64
2018-03-21T08:44:45.728Z,99135.41
2018-03-21T08:45:49.517Z,99139.57
2018-03-21T08:46:52.805Z,99133.80
2018-03-21T08:47:56.192Z,99135.03
2018-03-21T08:48:59.497Z,99130.27
2018-03-21T08:50:02.854Z,99133.02
2018-03-21T08:51:06.128Z,99129.86
2018-03-21T08:52:09.880Z,99127.09
2018-03-21T08:53:13.335Z,99131.34
2018-03-21T08:54:16.796Z,99134.38
2018-03-21T08:55:20.152Z,99134.09
2018-03-21T08:56:23.505Z,99126.05
2018-03-21T08:57:26.834Z,99131.50
2018-03-21T08:58:31.061Z,99131.34
2018-03-21T08:59:34.531Z,99127.80
2018-03-21T09:00:37.856Z,99127.09
2018-03-21T09:01:41.158Z,99128.52
2018-03-21T09:02:44.486Z,99130.22
2018-03-21T09:03:47.961Z,99125.34
2018-03-21T09:04:51.713Z,99118.16
2018-03-21T09:05:55.012Z,99121.86
2018-03-21T09:06:58.358Z,99126.77
2018-03-21T09:08:01.949Z,99123.66
2018-03-21T09:09:05.362Z,99119.88
2018-03-21T09:10:08.706Z,99125.95
2018-03-21T09:11:12.469Z,99117.73
2018-03-21T09:12:17.732Z,99123.89
2018-03-21T09:13:21.036Z,99124.13
2018-03-21T09:14:24.389Z,99129.20
2018-03-21T09:15:28.834Z,99124.07
2018-03-21T09:16:32.079Z,99123.70
2018-03-21T09:17:35.777Z,99129.59
2018-03-21T09:18:39.055Z,99120.02
2018-03-21T09:19:42.428Z,99121.12
2018-03-21T09:20:45.779Z,99121.34
2018-03-21T09:21:49.187Z,99120.55
2018-03-21T09:22:52.543Z,99119.98
2018-03-21T09:23:55.658Z,99119.77
2018-03-21T09:24:59.009Z,99120.52
2018-03-21T09:26:02.388Z,99124.95
2018-03-21T09:27:05.854Z,99116.09
2018-03-21T09:28:09.093Z,99120.27
2018-03-21T09:29:12.466Z,99115.25
2018-03-21T09:30:15.835Z,99121.30
2018-03-21T09:31:19.212Z,99127.09
2018-03-21T09:32:22.841Z,99126.52
2018-03-21T09:33:27.314Z,99124.13
2018-03-21T09:34:30.961Z,99123.20
2018-03-21T09:35:35.116Z,99117.23
2018-03-21T09:36:38.446Z,99113.91
2018-03-21T09:37:41.833Z,99121.12
2018-03-21T09:38:45.327Z,99110.81
2018-03-21T09:39:48.707Z,99109.82
2018-03-21T09:40:52.420Z,99115.31
2018-03-21T09:41:55.682Z,99111.60
2018-03-21T09:42:59.034Z,99108.64
2018-03-21T09:44:03.110Z,99112.16
2018-03-21T09:45:06.568Z,99107.05
2018-03-21T09:46:09.926Z,99112.05
2018-03-21T09:47:13.642Z,99113.09
2018-03-21T09:48:16.991Z,99117.20
2018-03-21T09:49:20.364Z,99105.88
2018-03-21T09:50:23.624Z,99105.94
